Time;durP1;ratioP1;P1;durP2;ratioP2;P2;SDS_P1;SDS_P2;PMS_P1;PMS_P2;Temp;Humidity;BMP_temperature;BMP_pressure;BME280_temperature;BME280_humidity;BME280_pressure;Samples;Min_cycle;Max_cycle;Signal;HPM_P1;HPM_P2
2021/08/02 00:02:28;;;;;;;1999.90;999.90;;;;;;;20.56;94.71;95331.63;5026775;28;20606;-75
2021/08/02 00:05:02;;;;;;;1999.90;999.90;;;;;;;20.53;95.95;95321.78;5026825;28;20635;-76
2021/08/02 00:07:33;;;;;;;1999.90;999.90;;;;;;;20.46;95.32;95324.34;5026529;28;20192;-75
2021/08/02 00:10:07;;;;;;;1999.90;999.90;;;;;;;20.31;96.53;95327.16;5026338;28;20721;-75
2021/08/02 00:12:41;;;;;;;1999.90;999.90;;;;;;;20.28;97.03;95327.84;5026412;28;20242;-75
2021/08/02 00:15:12;;;;;;;1999.90;999.90;;;;;;;20.24;97.31;95327.81;5026390;28;20191;-76
2021/08/02 00:17:41;;;;;;;1999.90;999.90;;;;;;;20.25;97.23;95323.28;5026631;28;20186;-77
2021/08/02 00:20:11;;;;;;;1999.90;999.90;;;;;;;20.26;96.54;95330.88;5026462;28;20633;-76
2021/08/02 00:22:39;;;;;;;1999.90;999.90;;;;;;;20.30;97.26;95326.38;5026218;28;20617;-77
2021/08/02 00:25:07;;;;;;;1999.90;999.90;;;;;;;20.37;95.45;95326.50;5026578;28;20583;-77
2021/08/02 00:27:35;;;;;;;1999.90;999.90;;;;;;;20.44;93.44;95326.56;5025625;28;20241;-76
2021/08/02 00:30:02;;;;;;;1999.90;999.90;;;;;;;20.44;92.99;95326.56;5026113;28;20210;-76
2021/08/02 00:32:31;;;;;;;1999.90;999.90;;;;;;;20.41;92.57;95319.38;5026224;28;20687;-76
2021/08/02 00:34:58;;;;;;;1999.90;999.90;;;;;;;20.42;92.78;95326.16;5026439;28;20589;-76
2021/08/02 00:37:37;;;;;;;1999.90;999.90;;;;;;;20.48;92.38;95321.31;5026073;28;20190;-76
2021/08/02 00:40:29;;;;;;;1999.90;999.90;;;;;;;20.54;90.62;95318.00;5026556;28;20186;-75
2021/08/02 00:43:09;;;;;;;1999.90;999.90;;;;;;;20.63;86.88;95323.00;5026239;28;20293;-74
2021/08/02 00:45:36;;;;;;;1999.90;999.90;;;;;;;20.78;85.28;95315.97;5026012;28;20661;-75
2021/08/02 00:48:07;;;;;;;1999.90;999.90;;;;;;;20.80;84.24;95311.13;5026132;28;20254;-76
2021/08/02 00:50:38;;;;;;;1999.90;999.90;;;;;;;20.90;84.44;95313.09;5026149;28;20190;-76
2021/08/02 00:53:07;;;;;;;1999.90;999.90;;;;;;;20.89;84.65;95306.28;5025945;28;20186;-77
2021/08/02 00:55:36;;;;;;;1999.90;999.90;;;;;;;20.99;83.92;95314.31;5026078;28;20678;-76
2021/08/02 00:58:06;;;;;;;1999.90;999.90;;;;;;;21.00;84.08;95310.56;5025695;28;20260;-75
2021/08/02 01:00:34;;;;;;;1999.90;999.90;;;;;;;20.91;84.87;95296.88;5025624;28;20229;-75
2021/08/02 01:03:07;;;;;;;1999.90;999.90;;;;;;;20.81;86.47;95302.84;5025791;28;20694;-74
2021/08/02 01:05:36;;;;;;;1999.90;999.90;;;;;;;20.76;87.65;95299.75;5025726;28;20646;-75
2021/08/02 01:08:08;;;;;;;1999.90;999.90;;;;;;;20.71;87.97;95278.97;5025817;28;20202;-75
2021/08/02 01:10:36;;;;;;;1999.90;999.90;;;;;;;20.63;88.22;95281.50;5026010;28;20608;-75
2021/08/02 01:13:06;;;;;;;1999.90;999.90;;;;;;;20.53;88.92;95287.44;5025681;28;20254;-75
2021/08/02 01:15:34;;;;;;;1999.90;999.90;;;;;;;20.40;90.60;95290.69;5026030;28;20586;-75
2021/08/02 01:18:03;;;;;;;1999.90;999.90;;;;;;;20.42;91.13;95277.91;5025712;28;20673;-76
2021/08/02 01:20:33;;;;;;;1999.90;999.90;;;;;;;20.39;91.46;95282.00;5025656;28;20198;-76
2021/08/02 01:23:04;;;;;;;1999.90;999.90;;;;;;;20.25;92.78;95284.47;5025528;28;20865;-75
2021/08/02 01:26:11;;;;;;;1999.90;999.90;;;;;;;20.14;93.44;95275.66;5026029;28;20382;-74
2021/08/02 01:29:15;;;;;;;1999.90;999.90;;;;;;;19.72;95.28;95268.75;5025643;28;20669;-75
2021/08/02 01:31:42;;;;;;;1999.90;999.90;;;;;;;19.67;96.49;95279.59;5025522;28;20205;-75
2021/08/02 01:34:09;;;;;;;1999.90;999.90;;;;;;;19.72;96.69;95260.84;5025725;28;20303;-76
2021/08/02 01:36:37;;;;;;;1999.90;999.90;;;;;;;19.71;97.54;95256.69;5025373;28;20208;-76
2021/08/02 01:39:05;;;;;;;1999.90;999.90;;;;;;;19.57;98.37;95248.59;5027209;28;20209;-76
2021/08/02 01:41:32;;;;;;;1999.90;999.90;;;;;;;19.65;97.90;95244.91;5028948;28;20221;-76
2021/08/02 01:43:59;;;;;;;1999.90;999.90;;;;;;;19.67;98.00;95244.56;5028831;28;20198;-76
2021/08/02 01:46:40;;;;;;;1999.90;999.90;;;;;;;19.70;98.01;95241.97;5028883;28;20205;-75
2021/08/02 01:49:15;;;;;;;1999.90;999.90;;;;;;;19.71;98.13;95234.81;5028835;28;20190;-76
2021/08/02 01:51:47;;;;;;;1999.90;999.90;;;;;;;19.70;97.97;95234.06;5028961;28;20200;-74
2021/08/02 01:54:33;;;;;;;1999.90;999.90;;;;;;;19.66;98.02;95230.63;5028335;28;20642;-76
2021/08/02 01:57:06;;;;;;;1999.90;999.90;;;;;;;19.45;99.37;95227.69;5027688;28;20205;-76
2021/08/02 01:59:39;;;;;;;1999.90;999.90;;;;;;;19.45;99.65;95234.84;5026747;28;20670;-76
2021/08/02 02:02:11;;;;;;;1999.90;999.90;;;;;;;19.40;99.94;95237.75;5024633;28;20705;-76
2021/08/02 02:04:43;;;;;;;1999.90;999.90;;;;;;;19.33;100.00;95238.41;5026088;28;20205;-76
2021/08/02 02:07:12;;;;;;;1999.90;999.90;;;;;;;19.39;99.73;95239.63;5027766;28;20205;-76
2021/08/02 02:09:42;;;;;;;1999.90;999.90;;;;;;;19.28;99.91;95233.44;5027405;28;20705;-76
2021/08/02 02:12:11;;;;;;;1999.90;999.90;;;;;;;19.24;99.77;95224.72;5027905;28;20202;-75
2021/08/02 02:14:41;;;;;;;1999.90;999.90;;;;;;;19.25;99.66;95231.53;5028164;28;20202;-76
2021/08/02 02:17:10;;;;;;;1999.90;999.90;;;;;;;19.16;100.00;95238.91;5028029;28;20634;-76
2021/08/02 02:19:39;;;;;;;1999.90;999.90;;;;;;;19.23;100.00;95242.41;5028466;28;20649;-76
2021/08/02 02:22:08;;;;;;;1999.90;999.90;;;;;;;19.24;99.95;95248.44;5027972;28;20230;-76
2021/08/02 02:24:36;;;;;;;1999.90;999.90;;;;;;;19.26;100.00;95251.50;5028130;28;20204;-76
2021/08/02 02:27:07;;;;;;;1999.90;999.90;;;;;;;19.26;99.78;95246.97;5028006;28;20205;-76
2021/08/02 02:29:35;;;;;;;1999.90;999.90;;;;;;;19.23;99.31;95247.66;5028534;28;20307;-75
2021/08/02 02:32:05;;;;;;;1999.90;999.90;;;;;;;19.03;100.00;95246.22;5028161;28;20206;-76
2021/08/02 02:34:34;;;;;;;1999.90;999.90;;;;;;;18.99;99.53;95240.16;5028253;28;20206;-74
2021/08/02 02:37:01;;;;;;;1999.90;999.90;;;;;;;18.86;100.00;95244.84;5028369;28;20213;-75
2021/08/02 02:39:30;;;;;;;1999.90;999.90;;;;;;;18.80;100.00;95240.97;5028080;28;20198;-74
2021/08/02 02:41:59;;;;;;;1999.90;999.90;;;;;;;18.76;99.61;95236.78;5027708;28;20229;-74
2021/08/02 02:44:29;;;;;;;1999.90;999.90;;;;;;;18.71;99.34;95245.72;5027966;28;20224;-74
2021/08/02 02:46:57;;;;;;;1999.90;999.90;;;;;;;18.74;99.20;95229.22;5027923;28;20209;-74
2021/08/02 02:49:25;;;;;;;1999.90;999.90;;;;;;;18.81;98.84;95231.22;5027459;28;20206;-73
2021/08/02 02:51:53;;;;;;;1999.90;999.90;;;;;;;18.80;98.98;95240.22;5027549;28;20574;-76
2021/08/02 02:54:23;;;;;;;1999.90;999.90;;;;;;;18.77;98.80;95241.69;5027466;28;20578;-75
2021/08/02 02:56:52;;;;;;;1999.90;999.90;;;;;;;18.77;99.11;95239.06;5027541;28;20554;-76
2021/08/02 02:59:20;;;;;;;1999.90;999.90;;;;;;;18.50;99.99;95235.56;5027294;28;20233;-76
2021/08/02 03:01:51;;;;;;;1999.90;999.90;;;;;;;18.52;100.00;95242.34;5027397;28;20218;-75
2021/08/02 03:04:20;;;;;;;1999.90;999.90;;;;;;;18.54;100.00;95234.88;5027416;28;20557;-76
2021/08/02 03:06:48;;;;;;;1999.90;999.90;;;;;;;18.35;100.00;95233.78;5027272;28;20204;-75
2021/08/02 03:09:19;;;;;;;1999.90;999.90;;;;;;;18.34;100.00;95231.50;5027741;28;20214;-76
2021/08/02 03:11:47;;;;;;;1999.90;999.90;;;;;;;18.31;100.00;95226.94;5027724;28;20190;-75
2021/08/02 03:14:15;;;;;;;1999.90;999.90;;;;;;;18.21;100.00;95235.41;5027257;28;20198;-75
2021/08/02 03:16:42;;;;;;;1999.90;999.90;;;;;;;18.26;100.00;95229.84;5027479;28;20202;-74
2021/08/02 03:19:11;;;;;;;1999.90;999.90;;;;;;;18.11;100.00;95249.09;5027337;28;20209;-74
2021/08/02 03:21:38;;;;;;;1999.90;999.90;;;;;;;18.06;100.00;95234.38;5027325;28;20222;-72
2021/08/02 03:24:13;;;;;;;1999.90;999.90;;;;;;;18.03;100.00;95238.44;5027445;28;20232;-72
2021/08/02 03:26:44;;;;;;;1999.90;999.90;;;;;;;18.03;100.00;95238.44;5027329;28;20254;-74
2021/08/02 03:29:18;;;;;;;1999.90;999.90;;;;;;;17.99;100.00;95257.88;5027439;28;20190;-74
2021/08/02 03:31:50;;;;;;;1999.90;999.90;;;;;;;17.94;100.00;95245.78;5026992;28;20190;-72
2021/08/02 03:34:24;;;;;;;1999.90;999.90;;;;;;;18.06;100.00;95258.81;5027202;28;20193;-74
2021/08/02 03:36:53;;;;;;;1999.90;999.90;;;;;;;17.95;100.00;95263.06;5026916;28;20189;-73
2021/08/02 03:39:23;;;;;;;1999.90;999.90;;;;;;;18.08;100.00;95261.09;5027057;28;20201;-73
2021/08/02 03:41:51;;;;;;;1999.90;999.90;;;;;;;18.08;100.00;95261.81;5026768;28;20282;-74
2021/08/02 03:44:19;;;;;;;1999.90;999.90;;;;;;;18.11;100.00;95259.63;5027005;28;20201;-74
2021/08/02 03:46:47;;;;;;;1999.90;999.90;;;;;;;18.25;99.37;95258.03;5026812;28;20205;-73
2021/08/02 03:49:14;;;;;;;1999.90;999.90;;;;;;;18.26;100.00;95262.19;5027042;28;20202;-73
2021/08/02 03:51:47;;;;;;;1999.90;999.90;;;;;;;18.24;100.00;95258.38;5026986;28;20202;-73
2021/08/02 03:54:16;;;;;;;1999.90;999.90;;;;;;;18.27;100.00;95263.72;5025070;28;20236;-73
2021/08/02 03:56:44;;;;;;;1999.90;999.90;;;;;;;18.36;100.00;95266.88;5017531;28;20581;-76
2021/08/02 03:59:12;;;;;;;1999.90;999.90;;;;;;;18.28;100.00;95267.84;5017657;28;20245;-70
2021/08/02 04:01:40;;;;;;;1999.90;999.90;;;;;;;18.10;100.00;95266.75;5020818;28;20677;-71
2021/08/02 04:04:07;;;;;;;1999.90;999.90;;;;;;;18.24;100.00;95271.50;5018222;28;20225;-73
2021/08/02 04:06:35;;;;;;;1999.90;999.90;;;;;;;18.33;100.00;95258.94;5024097;28;20289;-72
2021/08/02 04:09:07;;;;;;;1999.90;999.90;;;;;;;18.48;99.14;95268.59;5023413;28;20213;-73
2021/08/02 04:11:34;;;;;;;1999.90;999.90;;;;;;;18.61;96.68;95256.84;5023044;28;20638;-73
2021/08/02 04:14:02;;;;;;;1999.90;999.90;;;;;;;18.78;95.08;95260.91;5023201;28;20198;-72
2021/08/02 04:16:29;;;;;;;1999.90;999.90;;;;;;;19.02;91.89;95265.03;5022910;28;20566;-73
2021/08/02 04:18:56;;;;;;;1999.90;999.90;;;;;;;19.12;91.74;95275.00;5023125;28;20200;-72
2021/08/02 04:21:23;;;;;;;1999.90;999.90;;;;;;;19.24;91.42;95251.06;5023087;28;20611;-72
2021/08/02 04:23:50;;;;;;;1999.90;999.90;;;;;;;19.26;91.35;95267.28;5024020;28;20225;-73
2021/08/02 04:26:19;;;;;;;1999.90;999.90;;;;;;;19.44;91.34;95270.19;5024678;28;20198;-73
2021/08/02 04:28:49;;;;;;;1999.90;999.90;;;;;;;19.59;91.72;95269.31;5025657;28;20209;-74
2021/08/02 04:31:16;;;;;;;1999.90;999.90;;;;;;;19.80;92.13;95280.13;5026248;28;20232;-72
2021/08/02 04:33:44;;;;;;;1999.90;999.90;;;;;;;20.04;93.50;95273.66;5026267;28;20210;-73
2021/08/02 04:36:12;;;;;;;1999.90;999.90;;;;;;;20.41;94.25;95276.38;5026280;28;20193;-74
2021/08/02 04:38:39;;;;;;;1999.90;999.90;;;;;;;20.58;92.95;95273.91;5026325;28;20201;-72
2021/08/02 04:41:06;;;;;;;1999.90;999.90;;;;;;;20.75;91.63;95272.59;5026158;28;20205;-72
2021/08/02 04:43:35;;;;;;;1999.90;999.90;;;;;;;21.05;90.22;95278.50;5026013;28;20687;-72
2021/08/02 04:46:02;;;;;;;1999.90;999.90;;;;;;;21.29;89.78;95266.66;5025825;28;20496;-73
2021/08/02 04:48:30;;;;;;;1999.90;999.90;;;;;;;21.50;88.93;95267.91;5026182;28;20206;-74
2021/08/02 04:50:57;;;;;;;1999.90;999.90;;;;;;;21.61;88.57;95263.47;5026113;28;20284;-74
2021/08/02 04:53:24;;;;;;;1999.90;999.90;;;;;;;21.47;90.26;95272.03;5025885;28;20205;-73
2021/08/02 04:55:51;;;;;;;1999.90;999.90;;;;;;;21.63;90.71;95272.53;5025795;28;20202;-72
2021/08/02 04:58:18;;;;;;;1999.90;999.90;;;;;;;21.86;91.58;95261.72;5019594;28;20227;-74
2021/08/02 05:00:47;;;;;;;1999.90;999.90;;;;;;;21.98;92.41;95256.09;5006117;28;20202;-77
2021/08/02 05:03:14;;;;;;;1999.90;999.90;;;;;;;22.04;92.67;95259.16;5006204;28;20226;-74
2021/08/02 05:05:41;;;;;;;1999.90;999.90;;;;;;;22.26;91.42;95266.81;5006475;28;20203;-75
2021/08/02 05:08:08;;;;;;;1999.90;999.90;;;;;;;22.40;91.67;95266.09;5006078;28;20202;-75
2021/08/02 05:10:36;;;;;;;1999.90;999.90;;;;;;;22.77;88.98;95265.81;5005996;28;20202;-74
2021/08/02 05:13:03;;;;;;;1999.90;999.90;;;;;;;22.92;87.85;95270.00;5006474;28;20198;-75
2021/08/02 05:15:30;;;;;;;1999.90;999.90;;;;;;;23.05;90.38;95278.38;5009318;28;20743;-74
2021/08/02 05:17:59;;;;;;;1999.90;999.90;;;;;;;23.34;88.57;95273.81;5009382;28;20202;-74
2021/08/02 05:20:26;;;;;;;1999.90;999.90;;;;;;;23.39;87.75;95278.72;5009301;28;20293;-74
2021/08/02 05:22:53;;;;;;;1999.90;999.90;;;;;;;23.42;90.36;95285.91;5009175;28;20222;-76
2021/08/02 05:25:21;;;;;;;1999.90;999.90;;;;;;;23.64;89.62;95282.16;5009494;28;20195;-75
2021/08/02 05:27:49;;;;;;;1999.90;999.90;;;;;;;23.59;88.91;95285.94;5009144;28;20567;-75
2021/08/02 05:30:17;;;;;;;1999.90;999.90;;;;;;;23.74;89.41;95281.38;5009387;28;20286;-79
2021/08/02 05:32:44;;;;;;;1999.90;999.90;;;;;;;23.74;89.15;95286.69;5009056;28;20214;-76
2021/08/02 05:35:14;;;;;;;1999.90;999.90;;;;;;;23.73;87.48;95293.13;5008924;28;20630;-72
2021/08/02 05:37:41;;;;;;;1999.90;999.90;;;;;;;23.93;85.16;95283.59;5009797;28;20587;-74
2021/08/02 05:40:10;;;;;;;1999.90;999.90;;;;;;;24.28;82.89;95296.03;5009002;28;20743;-73
2021/08/02 05:42:37;;;;;;;1999.90;999.90;;;;;;;24.54;79.57;95299.31;5009257;28;20262;-73
2021/08/02 05:45:05;;;;;;;1999.90;999.90;;;;;;;24.74;79.42;95303.00;5009221;28;20277;-72
2021/08/02 05:47:32;;;;;;;1999.90;999.90;;;;;;;24.83;81.69;95301.44;5008904;28;20689;-72
2021/08/02 05:50:00;;;;;;;1999.90;999.90;;;;;;;24.92;82.02;95293.06;5008753;28;20195;-74
2021/08/02 05:52:28;;;;;;;1999.90;999.90;;;;;;;25.07;81.59;95309.66;5008849;28;20252;-74
2021/08/02 05:54:55;;;;;;;1999.90;999.90;;;;;;;25.24;80.23;95306.13;5008971;28;20562;-74
2021/08/02 05:57:23;;;;;;;1999.90;999.90;;;;;;;25.21;82.02;95302.34;5008751;28;20283;-74
2021/08/02 05:59:50;;;;;;;1999.90;999.90;;;;;;;25.40;78.04;95306.38;5027400;28;20190;-73
2021/08/02 06:02:18;;;;;;;1999.90;999.90;;;;;;;25.65;80.81;95312.25;5028471;28;20656;-73
2021/08/02 06:04:45;;;;;;;1999.90;999.90;;;;;;;25.87;80.12;95312.81;5028105;28;20212;-73
2021/08/02 06:07:13;;;;;;;1999.90;999.90;;;;;;;25.84;77.47;95307.53;5027269;28;20732;-73
2021/08/02 06:09:41;;;;;;;1999.90;999.90;;;;;;;26.01;76.13;95318.00;5028127;28;20595;-72
2021/08/02 06:12:09;;;;;;;1999.90;999.90;;;;;;;26.19;74.51;95322.38;5028492;28;20651;-75
2021/08/02 06:14:36;;;;;;;1999.90;999.90;;;;;;;26.39;70.34;95324.09;5028245;28;20263;-75
2021/08/02 06:17:05;;;;;;;1999.90;999.90;;;;;;;26.62;68.85;95320.75;5028540;28;20201;-76
2021/08/02 06:19:32;;;;;;;1999.90;999.90;;;;;;;26.63;68.81;95337.50;5028641;28;20194;-76
2021/08/02 06:21:59;;;;;;;1999.90;999.90;;;;;;;26.82;69.53;95331.53;5028387;28;20202;-74
2021/08/02 06:24:27;;;;;;;1999.90;999.90;;;;;;;26.95;69.98;95332.53;5027411;28;20265;-75
2021/08/02 06:26:55;;;;;;;1999.90;999.90;;;;;;;26.98;70.37;95337.81;5027802;28;20204;-75
2021/08/02 06:29:22;;;;;;;1999.90;999.90;;;;;;;27.30;70.23;95334.66;5027999;28;20201;-75
2021/08/02 06:31:49;;;;;;;1999.90;999.90;;;;;;;27.53;67.26;95339.31;5028304;28;20209;-75
2021/08/02 06:34:16;;;;;;;1999.90;999.90;;;;;;;27.37;65.80;95334.56;5028239;28;20575;-75
2021/08/02 06:36:44;;;;;;;1999.90;999.90;;;;;;;27.33;66.21;95328.53;5027833;28;20204;-76
2021/08/02 06:39:11;;;;;;;1999.90;999.90;;;;;;;27.51;67.54;95335.53;5027822;28;20241;-75
2021/08/02 06:41:38;;;;;;;1999.90;999.90;;;;;;;27.57;68.29;95336.59;5028065;28;20205;-75
2021/08/02 06:44:07;;;;;;;1999.90;999.90;;;;;;;27.96;67.14;95323.31;5027720;28;20270;-75
2021/08/02 06:46:34;;;;;;;1999.90;999.90;;;;;;;28.18;63.22;95321.78;5027780;28;20209;-76
2021/08/02 06:49:01;;;;;;;1999.90;999.90;;;;;;;28.28;63.78;95330.00;5028123;28;20212;-77
2021/08/02 06:51:28;;;;;;;1999.90;999.90;;;;;;;28.09;65.72;95332.25;5027603;28;20205;-75
2021/08/02 06:53:56;;;;;;;1999.90;999.90;;;;;;;28.25;63.70;95326.22;5027693;28;20576;-76
2021/08/02 06:56:23;;;;;;;1999.90;999.90;;;;;;;28.37;57.96;95311.50;5027682;28;20271;-75
2021/08/02 06:58:51;;;;;;;1999.90;999.90;;;;;;;28.49;59.59;95313.56;5027324;28;20950;-75
2021/08/02 07:01:20;;;;;;;1999.90;999.90;;;;;;;28.56;61.37;95318.75;5027771;28;20205;-76
2021/08/02 07:03:47;;;;;;;1999.90;999.90;;;;;;;28.71;65.60;95319.19;5027396;28;20598;-75
2021/08/02 07:06:14;;;;;;;1999.90;999.90;;;;;;;28.94;65.11;95327.88;5027635;28;20230;-74
2021/08/02 07:08:41;;;;;;;1999.90;999.90;;;;;;;29.24;58.79;95312.72;5027644;28;20198;-76
2021/08/02 07:11:08;;;;;;;1999.90;999.90;;;;;;;29.40;60.58;95307.38;5027228;28;20198;-76
2021/08/02 07:13:35;;;;;;;1999.90;999.90;;;;;;;29.68;58.73;95314.72;5027640;28;20201;-76
2021/08/02 07:16:03;;;;;;;1999.90;999.90;;;;;;;29.87;59.88;95311.16;5027092;28;20585;-76
2021/08/02 07:18:34;;;;;;;1999.90;999.90;;;;;;;29.82;60.70;95318.97;5027209;28;20194;-76
2021/08/02 07:21:01;;;;;;;1999.90;999.90;;;;;;;29.89;61.80;95319.53;5027476;28;20192;-76
2021/08/02 07:23:28;;;;;;;1999.90;999.90;;;;;;;30.15;58.55;95304.31;5026992;28;20230;-76
2021/08/02 07:25:55;;;;;;;1999.90;999.90;;;;;;;30.39;56.82;95306.75;5027046;28;20198;-77
2021/08/02 07:28:23;;;;;;;1999.90;999.90;;;;;;;30.36;57.69;95308.34;5027086;28;20194;-77
2021/08/02 07:30:50;;;;;;;1999.90;999.90;;;;;;;30.66;55.59;95309.81;5027234;28;20556;-75
2021/08/02 07:33:17;;;;;;;1999.90;999.90;;;;;;;30.98;55.28;95306.19;5027377;28;20298;-74
2021/08/02 07:35:46;;;;;;;1999.90;999.90;;;;;;;31.37;55.19;95299.63;5026828;28;20286;-75
2021/08/02 07:38:13;;;;;;;1999.90;999.90;;;;;;;31.48;55.17;95303.47;5027305;28;20198;-75
2021/08/02 07:40:41;;;;;;;1999.90;999.90;;;;;;;31.30;53.39;95300.59;5027022;28;20739;-75
2021/08/02 07:43:08;;;;;;;1999.90;999.90;;;;;;;31.79;49.41;95295.56;5027107;28;20228;-75
2021/08/02 07:45:35;;;;;;;1999.90;999.90;;;;;;;31.94;52.37;95298.50;5027025;28;20206;-75
2021/08/02 07:48:02;;;;;;;1999.90;999.90;;;;;;;32.09;48.86;95291.44;5026841;28;20209;-76
2021/08/02 07:50:31;;;;;;;1999.90;999.90;;;;;;;32.15;46.98;95289.75;5026814;28;20230;-76
2021/08/02 07:52:59;;;;;;;1999.90;999.90;;;;;;;32.46;46.20;95289.78;5026750;28;20249;-76
2021/08/02 07:55:27;;;;;;;1999.90;999.90;;;;;;;32.70;44.71;95292.78;5026908;28;20212;-76
2021/08/02 07:57:54;;;;;;;1999.90;999.90;;;;;;;32.89;42.78;95292.41;5025877;28;20894;-76
2021/08/02 08:00:21;;;;;;;1999.90;999.90;;;;;;;32.74;46.46;95285.31;5026611;28;20695;-76
2021/08/02 08:02:48;;;;;;;1999.90;999.90;;;;;;;32.94;44.39;95295.69;5026489;28;20193;-76
2021/08/02 08:05:16;;;;;;;1999.90;999.90;;;;;;;32.92;44.36;95287.34;5026499;28;20873;-75
2021/08/02 08:07:45;;;;;;;1999.90;999.90;;;;;;;33.09;43.51;95289.31;5026448;28;20197;-75
2021/08/02 08:10:16;;;;;;;1999.90;999.90;;;;;;;33.15;36.13;95292.19;5026961;28;20208;-75
2021/08/02 08:12:43;;;;;;;1999.90;999.90;;;;;;;33.24;37.68;95292.25;5026969;28;20614;-77
2021/08/02 08:15:11;;;;;;;1999.90;999.90;;;;;;;33.26;38.74;95287.16;5026658;28;20193;-78
2021/08/02 08:17:39;;;;;;;1999.90;999.90;;;;;;;33.42;38.28;95289.59;5026458;28;20198;-76
2021/08/02 08:20:08;;;;;;;1999.90;999.90;;;;;;;33.58;35.67;95285.84;5026267;28;20244;-75
2021/08/02 08:22:36;;;;;;;1999.90;999.90;;;;;;;33.70;33.57;95282.31;5026331;28;20209;-76
2021/08/02 08:25:05;;;;;;;1999.90;999.90;;;;;;;33.68;32.73;95285.44;5026115;28;20229;-76
2021/08/02 08:27:33;;;;;;;1999.90;999.90;;;;;;;33.80;32.28;95277.66;5026577;28;20281;-77
2021/08/02 08:30:01;;;;;;;1999.90;999.90;;;;;;;33.94;31.38;95277.81;5026107;28;20763;-76
2021/08/02 08:32:28;;;;;;;1999.90;999.90;;;;;;;33.51;33.69;95278.06;5026417;28;20206;-77
2021/08/02 08:34:56;;;;;;;1999.90;999.90;;;;;;;33.91;33.98;95275.28;5026212;28;20581;-77
2021/08/02 08:37:23;;;;;;;1999.90;999.90;;;;;;;33.92;35.96;95266.75;5026071;28;20673;-77
2021/08/02 08:39:50;;;;;;;1999.90;999.90;;;;;;;34.19;34.32;95276.00;5025976;28;20288;-77
2021/08/02 08:42:17;;;;;;;1999.90;999.90;;;;;;;34.26;32.84;95264.91;5026288;28;20278;-77
2021/08/02 08:44:46;;;;;;;1999.90;999.90;;;;;;;34.33;34.62;95267.28;5025951;28;20228;-76
2021/08/02 08:47:14;;;;;;;1999.90;999.90;;;;;;;34.46;36.08;95265.16;5026024;28;20210;-76
2021/08/02 08:49:42;;;;;;;1999.90;999.90;;;;;;;34.69;34.74;95261.06;5029328;28;20208;-77
2021/08/02 08:52:10;;;;;;;1999.90;999.90;;;;;;;34.86;33.47;95259.50;5029608;28;20209;-78
2021/08/02 08:54:37;;;;;;;1999.90;999.90;;;;;;;34.80;34.41;95253.22;5029469;28;20204;-78
2021/08/02 08:57:09;;;;;;;1999.90;999.90;;;;;;;34.87;33.69;95252.91;5029582;28;20281;-77
2021/08/02 08:59:48;;;;;;;1999.90;999.90;;;;;;;35.14;33.34;95249.28;5029628;28;20225;-77
2021/08/02 09:02:15;;;;;;;1999.90;999.90;;;;;;;35.25;32.96;95244.16;5029619;28;20638;-76
2021/08/02 09:04:53;;;;;;;1999.90;999.90;;;;;;;35.20;32.06;95245.53;5029522;28;20328;-76
2021/08/02 09:07:20;;;;;;;1999.90;999.90;;;;;;;35.13;31.96;95239.69;5029691;28;20632;-76
2021/08/02 09:09:48;;;;;;;1999.90;999.90;;;;;;;35.05;33.41;95233.88;5029201;28;20198;-76
2021/08/02 09:12:16;;;;;;;1999.90;999.90;;;;;;;35.21;32.42;95232.78;5029175;28;20204;-77
2021/08/02 09:14:55;;;;;;;1999.90;999.90;;;;;;;35.32;34.41;95238.38;5029454;28;20198;-77
2021/08/02 09:17:31;;;;;;;1999.90;999.90;;;;;;;35.48;31.83;95227.16;5029196;28;20186;-77
2021/08/02 09:19:58;;;;;;;1999.90;999.90;;;;;;;35.42;29.83;95224.34;5029433;28;20201;-77
2021/08/02 09:22:31;;;;;;;1999.90;999.90;;;;;;;35.27;31.92;95228.22;5029279;28;20194;-77
2021/08/02 09:25:10;;;;;;;1999.90;999.90;;;;;;;34.77;32.88;95222.47;5029496;28;20221;-77
2021/08/02 09:27:37;;;;;;;1999.90;999.90;;;;;;;35.04;32.53;95218.13;5029471;28;20246;-78
2021/08/02 09:30:23;;;;;;;1999.90;999.90;;;;;;;35.29;35.38;95217.69;5029355;28;20201;-77
2021/08/02 09:32:55;;;;;;;1999.90;999.90;;;;;;;35.51;34.21;95212.72;5028050;28;20198;-77
2021/08/02 09:35:34;;;;;;;1999.90;999.90;;;;;;;35.49;30.56;95203.56;5029005;28;20191;-78
2021/08/02 09:38:04;;;;;;;1999.90;999.90;;;;;;;35.77;30.68;95200.19;5028841;28;20654;-76
2021/08/02 09:40:38;;;;;;;1999.90;999.90;;;;;;;35.93;28.13;95206.38;5028874;28;20206;-75
2021/08/02 09:43:05;;;;;;;1999.90;999.90;;;;;;;35.97;28.34;95215.78;5029071;28;20182;-77
2021/08/02 09:45:45;;;;;;;1999.90;999.90;;;;;;;35.93;28.10;95203.66;5028745;28;20630;-77
2021/08/02 09:48:15;;;;;;;1999.90;999.90;;;;;;;35.95;33.02;95212.81;5028992;28;20603;-77
2021/08/02 09:50:44;;;;;;;1999.90;999.90;;;;;;;36.07;33.48;95206.38;5028864;28;20202;-78
2021/08/02 09:53:15;;;;;;;1999.90;999.90;;;;;;;36.44;27.88;95206.00;5028785;28;20201;-78
2021/08/02 09:55:44;;;;;;;1999.90;999.90;;;;;;;36.57;26.88;95212.63;5028348;28;20305;-77
2021/08/02 09:58:14;;;;;;;1999.90;999.90;;;;;;;36.59;27.96;95201.31;5027011;28;20306;-78
2021/08/02 10:00:43;;;;;;;1999.90;999.90;;;;;;;36.33;27.90;95200.41;5027568;28;20689;-77
2021/08/02 10:03:10;;;;;;;1999.90;999.90;;;;;;;36.34;27.72;95199.97;5028617;28;20288;-77
2021/08/02 10:05:39;;;;;;;1999.90;999.90;;;;;;;36.54;28.08;95200.03;5028300;28;20226;-78
2021/08/02 10:08:07;;;;;;;1999.90;999.90;;;;;;;36.68;26.44;95193.09;5028434;28;20205;-77
2021/08/02 10:10:37;;;;;;;1999.90;999.90;;;;;;;36.84;27.51;95191.84;5028296;28;20198;-77
2021/08/02 10:13:05;;;;;;;1999.90;999.90;;;;;;;36.89;29.47;95194.63;5028361;28;20635;-77
2021/08/02 10:15:33;;;;;;;1999.90;999.90;;;;;;;36.83;25.98;95182.22;5028303;28;20201;-78
2021/08/02 10:18:05;;;;;;;1999.90;999.90;;;;;;;36.93;25.34;95183.59;5028141;28;20218;-78
2021/08/02 10:20:34;;;;;;;1999.90;999.90;;;;;;;37.06;25.58;95173.91;5028091;28;20186;-77
2021/08/02 10:23:03;;;;;;;1999.90;999.90;;;;;;;37.15;29.47;95178.50;5028274;28;20239;-77
2021/08/02 10:25:38;;;;;;;1999.90;999.90;;;;;;;37.03;29.32;95174.84;5028378;28;20230;-78
2021/08/02 10:28:07;;;;;;;1999.90;999.90;;;;;;;36.98;25.25;95174.78;5028041;28;20745;-78
2021/08/02 10:30:34;;;;;;;1999.90;999.90;;;;;;;37.01;25.26;95177.28;5027977;28;20300;-78
2021/08/02 10:33:03;;;;;;;1999.90;999.90;;;;;;;37.20;27.30;95172.38;5028014;28;20346;-77
2021/08/02 10:35:41;;;;;;;1999.90;999.90;;;;;;;37.19;27.77;95176.31;5028224;28;20205;-78
2021/08/02 10:38:10;;;;;;;1999.90;999.90;;;;;;;37.30;27.50;95173.00;5028324;28;20189;-78
2021/08/02 10:40:47;;;;;;;1999.90;999.90;;;;;;;37.37;30.26;95164.44;5028333;28;20243;-78
2021/08/02 10:43:27;;;;;;;1999.90;999.90;;;;;;;37.51;28.18;95169.03;5028431;28;20243;-78
2021/08/02 10:45:54;;;;;;;1999.90;999.90;;;;;;;37.62;27.67;95173.84;5028155;28;20258;-79
2021/08/02 10:48:27;;;;;;;1999.90;999.90;;;;;;;37.19;30.54;95170.13;5028212;28;20619;-77
2021/08/02 10:50:54;;;;;;;1999.90;999.90;;;;;;;37.00;30.33;95158.81;5028158;28;20192;-78
2021/08/02 10:53:21;;;;;;;1999.90;999.90;;;;;;;37.21;30.41;95156.88;5028242;28;20201;-78
2021/08/02 10:55:50;;;;;;;1999.90;999.90;;;;;;;37.37;31.95;95154.31;5027997;28;20228;-78
2021/08/02 10:58:32;;;;;;;1999.90;999.90;;;;;;;37.27;32.98;95152.97;5027370;28;20233;-78
2021/08/02 11:01:02;;;;;;;1999.90;999.90;;;;;;;37.50;35.36;95148.56;5027513;28;20193;-78
2021/08/02 11:03:34;;;;;;;1999.90;999.90;;;;;;;37.45;29.65;95143.81;5027936;28;20194;-79